Time;durP1;ratioP1;P1;durP2;ratioP2;P2;SDS_P1;SDS_P2;PMS_P1;PMS_P2;Temp;Humidity;BMP_temperature;BMP_pressure;BME280_temperature;BME280_humidity;BME280_pressure;Samples;Min_cycle;Max_cycle;Signal;HPM_P1;HPM_P2
2021/12/29 00:00:58;;;;;;;12.53;6.22;;;;;;;-5.73;85.54;140886.55;1535959;93;21590;-61
2021/12/29 00:03:24;;;;;;;16.20;7.67;;;;;;;-5.77;85.52;140876.69;1532698;93;21118;-61
2021/12/29 00:05:51;;;;;;;14.33;6.60;;;;;;;-5.80;85.58;140869.23;1522340;94;21147;-62
2021/12/29 00:08:18;;;;;;;13.03;6.35;;;;;;;-5.80;85.67;140869.23;1522432;94;21151;-63
2021/12/29 00:10:47;;;;;;;12.33;6.95;;;;;;;-5.81;85.62;140866.78;1522333;94;21110;-61
2021/12/29 00:13:13;;;;;;;13.15;6.35;;;;;;;-5.85;85.50;140856.88;1522936;93;21147;-63
2021/12/29 00:15:41;;;;;;;14.87;7.00;;;;;;;-5.91;85.63;140844.50;1531767;93;21132;-64
2021/12/29 00:18:08;;;;;;;12.98;6.58;;;;;;;-5.93;85.68;140839.59;1533750;93;21115;-62
2021/12/29 00:20:34;;;;;;;15.10;7.22;;;;;;;-5.95;85.86;140834.69;1533552;93;21619;-63
2021/12/29 00:23:04;;;;;;;13.08;6.67;;;;;;;-5.97;85.90;140828.52;1518645;93;21183;-64
2021/12/29 00:25:32;;;;;;;14.63;7.28;;;;;;;-5.98;86.01;140827.28;1544331;92;21047;-61
2021/12/29 00:28:01;;;;;;;12.03;6.40;;;;;;;-5.98;85.98;140826.02;1520067;93;21053;-65
2021/12/29 00:30:28;;;;;;;12.10;5.90;;;;;;;-5.94;85.94;140837.14;1546854;92;21089;-64
2021/12/29 00:32:57;;;;;;;18.12;7.08;;;;;;;-5.99;85.75;140824.78;1520581;93;21069;-64
2021/12/29 00:35:45;;;;;;;16.50;8.28;;;;;;;-6.05;85.92;140808.75;1476809;96;21148;-66
2021/12/29 00:38:16;;;;;;;11.33;6.20;;;;;;;-6.10;86.07;140797.63;1499381;93;21071;-60
2021/12/29 00:41:02;;;;;;;13.70;6.37;;;;;;;-6.15;86.25;140785.25;1548959;90;21030;-62
2021/12/29 00:43:30;;;;;;;17.37;7.03;;;;;;;-6.17;86.45;140781.53;1572358;90;21529;-63
2021/12/29 00:46:17;;;;;;;13.98;6.55;;;;;;;-6.19;86.48;140775.34;1535460;93;21160;-62
2021/12/29 00:48:47;;;;;;;12.73;6.65;;;;;;;-6.19;86.69;140775.34;1527637;93;21106;-61
2021/12/29 00:51:14;;;;;;;16.02;7.00;;;;;;;-6.18;86.73;140777.81;1525976;93;21108;-63
2021/12/29 00:53:42;;;;;;;15.65;6.60;;;;;;;-6.18;86.71;140777.81;1527288;93;21147;-63
2021/12/29 00:56:09;;;;;;;15.30;6.67;;;;;;;-6.20;86.78;140774.13;1519902;93;21088;-64
2021/12/29 00:58:35;;;;;;;18.80;8.08;;;;;;;-6.18;86.83;140777.81;1526982;93;21046;-60
2021/12/29 01:01:04;;;;;;;11.12;6.00;;;;;;;-6.14;86.87;140787.72;1541839;92;21185;-62
2021/12/29 01:03:30;;;;;;;15.32;6.83;;;;;;;-6.09;86.81;140798.84;1531910;93;21161;-61
2021/12/29 01:05:57;;;;;;;12.15;6.10;;;;;;;-6.05;86.79;140809.97;1523441;93;21213;-61
2021/12/29 01:08:24;;;;;;;14.90;7.17;;;;;;;-6.00;86.77;140822.33;1525823;93;21105;-63
2021/12/29 01:10:50;;;;;;;12.80;6.00;;;;;;;-5.92;86.80;140840.83;1526110;92;21120;-63
2021/12/29 01:13:20;;;;;;;12.60;6.50;;;;;;;-5.87;86.41;140851.97;1521804;93;22094;-62
2021/12/29 01:15:57;;;;;;;14.60;6.05;;;;;;;-5.87;86.31;140851.97;1535754;92;21099;-61
2021/12/29 01:18:15;;;;;;;13.58;7.60;;;;;;;-5.85;86.26;140858.14;1527177;93;21094;-63
2021/12/29 01:20:42;;;;;;;15.88;8.73;;;;;;;-5.84;86.08;140859.38;1534690;92;21130;-62
2021/12/29 01:23:08;;;;;;;12.58;6.62;;;;;;;-5.84;86.09;140860.59;1543580;92;21106;-61
2021/12/29 01:25:35;;;;;;;12.90;6.25;;;;;;;-5.84;85.91;140860.59;1526874;92;21095;-63
2021/12/29 01:28:01;;;;;;;12.98;6.60;;;;;;;-5.89;85.83;140848.23;1511002;94;21550;-62
2021/12/29 01:30:29;;;;;;;12.98;6.47;;;;;;;-5.90;86.13;140847.00;1534915;93;21108;-63
2021/12/29 01:33:05;;;;;;;12.60;6.35;;;;;;;-5.89;86.20;140849.45;1520126;93;21119;-63
2021/12/29 01:35:30;;;;;;;14.28;6.22;;;;;;;-5.82;86.13;140864.31;1519877;94;21119;-61
2021/12/29 01:37:56;;;;;;;15.10;6.75;;;;;;;-5.81;86.11;140868.00;1510906;95;21085;-63
2021/12/29 01:40:23;;;;;;;13.83;6.60;;;;;;;-5.77;86.10;140877.91;1535178;93;21096;-65
2021/12/29 01:42:50;;;;;;;10.78;5.78;;;;;;;-5.75;85.94;140882.86;1520137;94;21111;-61
2021/12/29 01:45:16;;;;;;;13.53;6.72;;;;;;;-5.77;86.01;140876.69;1519961;93;21140;-63
2021/12/29 01:47:45;;;;;;;11.95;6.20;;;;;;;-5.78;85.99;140875.41;1520118;94;21071;-60
2021/12/29 01:50:15;;;;;;;12.78;6.92;;;;;;;-5.77;86.12;140876.69;1519808;94;21080;-61
2021/12/29 01:52:50;;;;;;;12.90;6.45;;;;;;;-5.77;86.05;140876.69;1519924;93;21103;-62
2021/12/29 01:55:15;;;;;;;15.20;6.87;;;;;;;-5.79;86.03;140872.95;1510665;95;21591;-63
2021/12/29 01:57:42;;;;;;;11.40;6.20;;;;;;;-5.81;86.10;140868.00;1535004;93;21225;-62
2021/12/29 02:00:15;;;;;;;11.53;6.53;;;;;;;-5.83;86.19;140861.83;1520062;94;21110;-60
2021/12/29 02:02:42;;;;;;;12.98;6.45;;;;;;;-5.84;86.27;140860.59;1520346;94;21127;-62
2021/12/29 02:05:11;;;;;;;12.68;6.28;;;;;;;-5.87;86.25;140851.97;1507850;91;21216;-61
2021/12/29 02:07:40;;;;;;;13.18;6.05;;;;;;;-5.91;86.45;140844.50;1520486;94;21111;-64
2021/12/29 02:10:09;;;;;;;14.43;6.85;;;;;;;-5.90;86.57;140845.78;1509763;95;21134;-62
2021/12/29 02:12:37;;;;;;;12.05;6.62;;;;;;;-5.92;86.58;140840.83;1520602;94;21075;-64
2021/12/29 02:15:06;;;;;;;12.63;6.22;;;;;;;-5.94;86.73;140837.14;1509776;95;21088;-61
2021/12/29 02:17:37;;;;;;;11.73;6.05;;;;;;;-5.95;86.84;140833.47;1520669;94;21592;-61
2021/12/29 02:20:11;;;;;;;11.50;5.78;;;;;;;-5.95;86.99;140833.47;1509803;95;21607;-63
2021/12/29 02:22:52;;;;;;;14.58;6.83;;;;;;;-5.95;87.11;140834.69;1520699;94;21108;-61
2021/12/29 02:27:52;;;;;;;11.93;7.08;;;;;;;-5.90;87.05;140847.00;1520449;94;21144;-62
2021/12/29 02:30:23;;;;;;;11.57;6.78;;;;;;;-5.85;87.04;140856.88;1509669;95;21109;-64
2021/12/29 02:32:55;;;;;;;13.03;6.72;;;;;;;-5.81;87.10;140866.78;1520647;94;21121;-65
2021/12/29 02:35:23;;;;;;;13.85;6.85;;;;;;;-5.78;87.12;140875.41;1509792;95;21086;-64
2021/12/29 02:37:50;;;;;;;14.60;7.30;;;;;;;-5.73;86.96;140886.55;1520434;94;21272;-60
2021/12/29 02:40:16;;;;;;;13.15;7.15;;;;;;;-5.73;86.75;140886.55;1509767;95;21139;-62
2021/12/29 02:42:44;;;;;;;15.48;6.75;;;;;;;-5.78;86.86;140874.19;1520577;94;21140;-62
2021/12/29 02:45:18;;;;;;;11.73;6.12;;;;;;;-5.82;86.94;140864.31;1509716;95;21102;-63
2021/12/29 02:47:44;;;;;;;12.07;6.30;;;;;;;-5.85;86.91;140856.88;1520672;94;21087;-62
2021/12/29 02:50:15;;;;;;;14.38;6.72;;;;;;;-5.86;87.14;140854.41;1509694;95;21607;-62
2021/12/29 02:52:41;;;;;;;13.10;6.47;;;;;;;-5.85;87.30;140856.88;1520560;94;21103;-62
2021/12/29 02:55:10;;;;;;;12.07;6.10;;;;;;;-5.80;87.28;140869.23;1509701;95;21184;-62
2021/12/29 02:57:37;;;;;;;12.07;6.92;;;;;;;-5.79;87.20;140871.73;1520379;94;21076;-62
2021/12/29 03:00:06;;;;;;;11.57;6.28;;;;;;;-5.75;87.40;140881.59;1509715;95;21070;-62
2021/12/29 03:02:35;;;;;;;10.88;6.20;;;;;;;-5.72;87.17;140889.05;1520707;94;21044;-62
2021/12/29 03:05:01;;;;;;;12.07;6.25;;;;;;;-5.73;87.17;140886.55;1518096;94;21116;-63
2021/12/29 03:07:29;;;;;;;11.80;6.53;;;;;;;-5.73;87.18;140886.55;1550091;93;21062;-63
2021/12/29 03:09:56;;;;;;;11.75;6.17;;;;;;;-5.74;87.28;140884.09;1538097;93;21097;-64
2021/12/29 03:12:23;;;;;;;13.03;7.30;;;;;;;-5.70;87.31;140893.95;1513883;93;21072;-63
2021/12/29 03:14:57;;;;;;;14.43;6.75;;;;;;;-5.69;87.18;140896.45;1538378;92;21052;-63
2021/12/29 03:17:24;;;;;;;10.98;6.30;;;;;;;-5.64;87.10;140907.59;1513924;93;21233;-64
2021/12/29 03:19:52;;;;;;;12.18;6.28;;;;;;;-5.63;86.89;140910.05;1538116;93;21171;-62
2021/12/29 03:22:18;;;;;;;11.45;6.65;;;;;;;-5.66;86.88;140903.86;1514096;93;21080;-61
2021/12/29 03:24:45;;;;;;;12.53;5.95;;;;;;;-5.73;86.78;140887.78;1538063;93;21077;-64
2021/12/29 03:27:11;;;;;;;11.85;5.95;;;;;;;-5.71;87.07;140891.50;1514160;93;21116;-61
2021/12/29 03:29:38;;;;;;;12.05;6.45;;;;;;;-5.67;87.00;140901.41;1538337;93;21105;-61
2021/12/29 03:32:09;;;;;;;11.43;5.75;;;;;;;-5.64;87.01;140908.81;1514108;93;21099;-62
2021/12/29 03:34:35;;;;;;;12.50;6.12;;;;;;;-5.62;86.88;140912.50;1538373;93;21068;-62
2021/12/29 03:37:02;;;;;;;12.95;6.25;;;;;;;-5.61;86.71;140916.22;1514004;93;21040;-60
2021/12/29 03:39:35;;;;;;;12.00;5.97;;;;;;;-5.59;86.72;140921.19;1538148;93;21029;-60
2021/12/29 03:41:57;;;;;;;13.60;6.70;;;;;;;-5.61;86.74;140915.00;1513538;93;21071;-61
2021/12/29 03:44:24;;;;;;;14.73;6.40;;;;;;;-5.62;86.73;140913.78;1538263;93;21573;-60
2021/12/29 03:46:50;;;;;;;10.80;6.05;;;;;;;-5.61;86.67;140915.00;1514102;93;21056;-63
2021/12/29 03:49:17;;;;;;;14.38;6.70;;;;;;;-5.62;86.59;140912.50;1538188;93;21063;-61
2021/12/29 03:51:43;;;;;;;11.35;6.20;;;;;;;-5.63;86.56;140911.28;1513840;93;21116;-60
2021/12/29 03:54:10;;;;;;;14.45;7.45;;;;;;;-5.63;86.59;140911.28;1538143;93;21109;-63
2021/12/29 03:56:36;;;;;;;13.55;7.25;;;;;;;-5.63;86.57;140911.28;1514180;93;21072;-63
2021/12/29 03:59:03;;;;;;;13.50;6.95;;;;;;;-5.61;86.55;140916.22;1538066;93;21064;-62
2021/12/29 04:01:30;;;;;;;12.82;6.78;;;;;;;-5.58;86.45;140922.41;1513907;93;21052;-62
2021/12/29 04:03:56;;;;;;;14.10;6.58;;;;;;;-5.55;86.41;140931.05;1537884;93;21118;-63
2021/12/29 04:06:23;;;;;;;10.20;6.33;;;;;;;-5.53;86.19;140936.00;1531332;93;21576;-62
2021/12/29 04:08:51;;;;;;;14.93;6.80;;;;;;;-5.53;86.14;140936.00;1531130;94;21154;-63
2021/12/29 04:11:18;;;;;;;12.10;7.45;;;;;;;-5.55;86.12;140931.05;1531155;94;21142;-64
2021/12/29 04:13:47;;;;;;;13.40;6.58;;;;;;;-5.57;86.12;140924.86;1531106;93;21144;-63
2021/12/29 04:16:17;;;;;;;12.73;7.65;;;;;;;-5.58;86.07;140922.41;1535749;93;21087;-62
2021/12/29 04:21:26;;;;;;;16.52;7.62;;;;;;;-5.59;86.09;140921.19;1506525;93;21154;-62
2021/12/29 04:23:54;;;;;;;15.48;9.10;;;;;;;-5.56;86.09;140928.59;1531171;94;21164;-64
2021/12/29 04:26:21;;;;;;;16.40;9.13;;;;;;;-5.55;86.03;140931.05;1531104;93;21196;-64
2021/12/29 04:28:47;;;;;;;18.73;11.08;;;;;;;-5.55;86.05;140931.05;1531097;94;21138;-62
2021/12/29 04:31:14;;;;;;;18.12;8.15;;;;;;;-5.53;85.91;140936.00;1564167;91;21048;-64
2021/12/29 04:33:40;;;;;;;15.50;8.18;;;;;;;-5.52;85.91;140938.50;1564090;92;21558;-64
2021/12/29 04:36:08;;;;;;;15.58;8.03;;;;;;;-5.49;85.88;140944.69;1564211;92;21060;-63
2021/12/29 04:38:36;;;;;;;14.53;8.18;;;;;;;-5.47;85.75;140950.88;1535575;93;21106;-63
2021/12/29 04:41:03;;;;;;;14.18;7.78;;;;;;;-5.46;85.70;140953.31;1531307;94;21093;-65
2021/12/29 04:43:30;;;;;;;14.50;8.08;;;;;;;-5.45;85.64;140955.78;1531323;94;21125;-62
2021/12/29 04:45:57;;;;;;;20.00;9.98;;;;;;;-5.46;85.48;140953.31;1531270;93;21121;-64
2021/12/29 04:48:26;;;;;;;28.75;14.25;;;;;;;-5.50;85.41;140943.41;1531239;94;21165;-63
2021/12/29 04:51:03;;;;;;;23.57;11.68;;;;;;;-5.58;85.50;140923.64;1535859;93;21047;-66
2021/12/29 04:53:23;;;;;;;25.70;14.98;;;;;;;-5.63;85.70;140910.05;1509994;95;21094;-64
2021/12/29 04:55:51;;;;;;;22.48;11.45;;;;;;;-5.65;85.85;140906.31;1531194;93;21123;-63
2021/12/29 04:58:21;;;;;;;23.67;13.62;;;;;;;-5.63;85.93;140911.28;1564205;91;21055;-62
2021/12/29 05:00:50;;;;;;;26.05;14.10;;;;;;;-5.60;86.02;140917.45;1535890;93;21102;-61
2021/12/29 05:03:18;;;;;;;19.62;10.82;;;;;;;-5.60;85.93;140917.45;1531371;94;21089;-63
2021/12/29 05:08:24;;;;;;;18.25;10.82;;;;;;;-5.63;85.98;140911.28;1564027;91;21107;-63
2021/12/29 05:08:25;;;;;;;20.00;12.13;;;;;;;-5.66;86.04;140903.86;1560525;92;21059;-61
2021/12/29 05:11:02;;;;;;;16.23;10.18;;;;;;;-5.68;86.19;140900.13;1535850;92;21103;-62
2021/12/29 05:13:32;;;;;;;24.32;12.73;;;;;;;-5.71;86.18;140892.72;1531457;94;21253;-63
2021/12/29 05:15:59;;;;;;;14.50;9.13;;;;;;;-5.70;86.37;140893.95;1564175;91;21055;-63
2021/12/29 05:18:30;;;;;;;16.97;9.30;;;;;;;-5.68;86.49;140898.91;1563960;92;21210;-61
2021/12/29 05:20:59;;;;;;;17.32;8.73;;;;;;;-5.67;86.43;140902.64;1535913;93;21122;-62
2021/12/29 05:23:27;;;;;;;12.33;7.45;;;;;;;-5.62;86.47;140912.50;1531400;94;21105;-61
2021/12/29 05:25:55;;;;;;;11.93;6.97;;;;;;;-5.62;86.38;140913.78;1531222;93;21104;-61
2021/12/29 05:28:24;;;;;;;17.02;8.33;;;;;;;-5.62;86.39;140913.78;1531496;93;21102;-62
2021/12/29 05:30:52;;;;;;;14.85;8.08;;;;;;;-5.64;86.32;140908.81;1531307;94;21669;-61
2021/12/29 05:33:20;;;;;;;14.65;7.10;;;;;;;-5.65;86.44;140906.31;1535885;93;21099;-62
2021/12/29 05:35:47;;;;;;;12.07;6.85;;;;;;;-5.63;86.54;140910.05;1531130;94;21086;-61
2021/12/29 05:38:13;;;;;;;12.18;6.83;;;;;;;-5.62;86.54;140912.50;1531359;93;21073;-63
2021/12/29 05:40:41;;;;;;;12.28;7.05;;;;;;;-5.65;86.61;140906.31;1531205;93;21109;-63
2021/12/29 05:43:07;;;;;;;14.87;7.33;;;;;;;-5.63;86.68;140910.05;1531437;94;21066;-63
2021/12/29 05:45:35;;;;;;;16.23;7.17;;;;;;;-5.64;86.73;140908.81;1535661;93;21143;-62
2021/12/29 05:48:02;;;;;;;16.37;7.70;;;;;;;-5.61;86.78;140915.00;1531362;94;21627;-61
2021/12/29 05:50:30;;;;;;;14.40;7.35;;;;;;;-5.58;86.81;140923.64;1531373;94;21081;-62
2021/12/29 05:52:59;;;;;;;17.73;7.80;;;;;;;-5.56;86.66;140927.38;1531211;94;21061;-63
2021/12/29 05:55:28;;;;;;;13.68;7.67;;;;;;;-5.53;86.74;140936.00;1531397;94;21184;-64
2021/12/29 05:57:57;;;;;;;17.25;8.70;;;;;;;-5.47;86.71;140950.88;1535688;93;21189;-65
2021/12/29 06:00:26;;;;;;;13.68;8.05;;;;;;;-5.42;86.55;140961.95;1531106;94;21606;-63
2021/12/29 06:02:55;;;;;;;16.67;7.90;;;;;;;-5.36;86.51;140975.59;1531165;94;21138;-61
2021/12/29 06:05:23;;;;;;;17.67;7.90;;;;;;;-5.33;86.33;140983.02;1532337;93;21170;-61
2021/12/29 06:07:51;;;;;;;17.92;9.18;;;;;;;-5.34;86.10;140981.78;1532164;94;21072;-63
2021/12/29 06:10:18;;;;;;;19.17;9.98;;;;;;;-5.33;86.12;140983.02;1533540;94;21610;-64
2021/12/29 06:12:45;;;;;;;16.20;7.62;;;;;;;-5.31;86.17;140987.97;1531505;94;21072;-64
2021/12/29 06:15:12;;;;;;;12.78;6.95;;;;;;;-5.27;86.11;140997.84;1537321;93;21103;-63
2021/12/29 06:17:40;;;;;;;15.93;7.83;;;;;;;-5.29;85.92;140992.88;1538480;93;21124;-62
2021/12/29 06:20:11;;;;;;;15.70;8.25;;;;;;;-5.28;85.97;140995.38;1538102;93;21138;-65
2021/12/29 06:22:42;;;;;;;16.00;8.20;;;;;;;-5.25;85.95;141002.80;1538510;93;21091;-63
2021/12/29 06:25:13;;;;;;;16.93;9.33;;;;;;;-5.24;85.80;141005.30;1538858;93;21102;-65
2021/12/29 06:27:40;;;;;;;16.73;8.20;;;;;;;-5.26;85.79;141000.34;1538914;92;21082;-64
2021/12/29 06:30:12;;;;;;;17.15;9.70;;;;;;;-5.25;85.80;141002.80;1536434;93;21052;-62
2021/12/29 06:32:40;;;;;;;16.80;9.68;;;;;;;-5.20;85.90;141015.16;1535263;92;21176;-62
2021/12/29 06:35:10;;;;;;;15.63;8.60;;;;;;;-5.16;85.82;141023.84;1537442;92;21055;-61
2021/12/29 06:37:38;;;;;;;19.90;10.25;;;;;;;-5.11;85.81;141037.44;1533814;94;21075;-62
2021/12/29 06:40:07;;;;;;;18.17;9.23;;;;;;;-5.05;85.65;141052.28;1533822;94;21124;-60
2021/12/29 06:42:34;;;;;;;23.77;13.65;;;;;;;-4.99;85.51;141064.64;1533768;94;21645;-60
2021/12/29 06:45:01;;;;;;;21.77;11.93;;;;;;;-4.91;85.47;141085.70;1533831;94;21104;-60
2021/12/29 06:47:27;;;;;;;18.60;10.13;;;;;;;-4.88;85.31;141091.89;1533741;94;21088;-60
2021/12/29 06:49:54;;;;;;;28.27;15.88;;;;;;;-4.87;85.02;141094.34;1533706;94;21111;-60
2021/12/29 06:52:20;;;;;;;32.85;16.32;;;;;;;-4.80;84.97;141111.69;1533510;94;21597;-64
2021/12/29 06:54:47;;;;;;;27.25;14.55;;;;;;;-4.77;84.73;141119.09;1533866;94;21642;-62
2021/12/29 06:57:14;;;;;;;25.95;14.05;;;;;;;-4.77;84.63;141117.88;1542613;93;21095;-63
2021/12/29 06:59:42;;;;;;;25.57;12.95;;;;;;;-4.78;84.55;141115.36;1543703;93;21103;-63
2021/12/29 07:02:10;;;;;;;27.48;15.63;;;;;;;-4.78;84.60;141115.36;1535312;93;21181;-64
2021/12/29 07:04:37;;;;;;;37.80;19.02;;;;;;;-4.72;84.57;141130.23;1536552;92;21052;-62
2021/12/29 07:07:04;;;;;;;30.95;14.83;;;;;;;-4.70;84.41;141136.42;1544131;92;21098;-62
2021/12/29 07:09:31;;;;;;;23.80;13.05;;;;;;;-4.64;84.41;141150.03;1543916;92;21053;-61
2021/12/29 07:11:58;;;;;;;19.92;10.98;;;;;;;-4.59;84.20;141163.63;1544260;91;21063;-63
2021/12/29 07:14:24;;;;;;;20.97;12.15;;;;;;;-4.57;83.87;141166.14;1546423;92;21047;-62
2021/12/29 07:16:51;;;;;;;20.55;11.50;;;;;;;-4.57;83.90;141166.14;1544871;92;21090;-64
2021/12/29 07:19:20;;;;;;;23.00;11.50;;;;;;;-4.55;83.77;141171.05;1544579;92;21067;-62
2021/12/29 07:21:48;;;;;;;21.45;11.60;;;;;;;-4.54;83.64;141173.56;1533184;92;21100;-62
2021/12/29 07:24:16;;;;;;;21.75;11.70;;;;;;;-4.57;83.61;141166.14;1530081;94;21075;-62
2021/12/29 07:26:43;;;;;;;23.35;11.73;;;;;;;-4.56;83.63;141168.59;1532976;94;21123;-63
2021/12/29 07:29:10;;;;;;;23.73;11.05;;;;;;;-4.55;83.63;141171.05;1532901;92;21118;-62
2021/12/29 07:31:37;;;;;;;24.15;12.07;;;;;;;-4.54;83.62;141173.56;1533740;92;22178;-62
2021/12/29 07:34:04;;;;;;;19.95;11.63;;;;;;;-4.53;83.56;141176.02;1532878;94;21081;-64
2021/12/29 07:36:31;;;;;;;21.87;10.85;;;;;;;-4.52;83.62;141178.52;1532750;94;21087;-61
2021/12/29 07:38:58;;;;;;;24.47;12.93;;;;;;;-4.47;83.70;141192.13;1532855;93;21061;-63
2021/12/29 07:41:25;;;;;;;22.40;12.85;;;;;;;-4.39;83.70;141210.69;1533480;92;21123;-64
2021/12/29 07:43:52;;;;;;;23.10;12.05;;;;;;;-4.31;83.68;141230.48;1532942;92;21546;-62
2021/12/29 07:46:19;;;;;;;22.82;11.78;;;;;;;-4.22;83.62;141251.56;1532335;94;21582;-63
2021/12/29 07:48:46;;;;;;;19.73;10.82;;;;;;;-4.13;83.30;141272.59;1533074;92;21096;-64
2021/12/29 07:51:15;;;;;;;26.73;13.35;;;;;;;-4.05;82.99;141292.39;1533693;92;21085;-63
2021/12/29 07:53:42;;;;;;;23.22;12.88;;;;;;;-4.02;82.74;141299.81;1532525;92;21115;-63
2021/12/29 07:56:09;;;;;;;20.02;11.60;;;;;;;-3.96;82.81;141314.70;1532494;94;21111;-64
2021/12/29 07:58:35;;;;;;;22.40;10.85;;;;;;;-3.90;82.35;141329.53;1529372;94;21164;-64
2021/12/29 08:01:03;;;;;;;21.07;10.95;;;;;;;-3.86;82.13;141338.23;1529307;94;21064;-65
2021/12/29 08:03:30;;;;;;;19.42;10.50;;;;;;;-3.82;82.00;141349.34;1529504;94;21091;-63
2021/12/29 08:05:57;;;;;;;24.80;11.65;;;;;;;-3.72;82.08;141372.89;1535780;93;21107;-62
2021/12/29 08:08:24;;;;;;;23.57;12.43;;;;;;;-3.72;81.55;141374.13;1546390;91;21093;-62
2021/12/29 08:10:51;;;;;;;21.20;11.50;;;;;;;-3.69;81.43;141380.31;1550592;91;21172;-64
2021/12/29 08:13:17;;;;;;;20.88;12.13;;;;;;;-3.66;81.01;141387.78;1522348;93;21204;-64
2021/12/29 08:15:44;;;;;;;19.82;11.45;;;;;;;-3.67;80.79;141385.28;1554693;92;21107;-64
2021/12/29 08:18:12;;;;;;;25.08;13.45;;;;;;;-3.69;80.67;141379.08;1549028;91;21101;-64
2021/12/29 08:20:39;;;;;;;20.17;12.50;;;;;;;-3.67;80.67;141385.28;1545664;93;21077;-64
2021/12/29 08:23:08;;;;;;;25.40;12.98;;;;;;;-3.65;80.68;141390.23;1545709;93;21120;-64
2021/12/29 08:25:35;;;;;;;24.55;12.25;;;;;;;-3.62;80.76;141397.66;1545782;92;21080;-63
2021/12/29 08:28:03;;;;;;;21.68;11.93;;;;;;;-3.64;80.52;141391.47;1545649;93;21097;-63
2021/12/29 08:30:31;;;;;;;22.85;13.25;;;;;;;-3.62;80.46;141397.66;1545644;91;21129;-63
2021/12/29 08:32:57;;;;;;;26.20;15.15;;;;;;;-3.63;80.23;141393.97;1549946;92;21141;-64
2021/12/29 08:35:27;;;;;;;27.73;14.75;;;;;;;-3.71;80.15;141376.62;1540465;93;21550;-63
2021/12/29 08:37:55;;;;;;;28.87;15.28;;;;;;;-3.72;80.26;141374.13;1527032;93;21122;-65
2021/12/29 08:40:24;;;;;;;23.67;13.35;;;;;;;-3.71;80.43;141376.62;1529059;93;21089;-64
2021/12/29 08:42:51;;;;;;;24.10;13.62;;;;;;;-3.77;80.25;141361.73;1528001;94;21192;-63
2021/12/29 08:45:21;;;;;;;24.07;15.23;;;;;;;-3.81;80.39;141351.84;1527861;94;21073;-65
2021/12/29 08:47:49;;;;;;;30.00;15.08;;;;;;;-3.82;80.46;141349.34;1552239;91;21554;-62
2021/12/29 08:50:19;;;;;;;29.50;16.62;;;;;;;-3.78;80.60;141358.05;1543680;93;21117;-64
2021/12/29 08:52:46;;;;;;;34.70;19.15;;;;;;;-3.80;80.55;141353.08;1534108;93;21133;-64
2021/12/29 08:55:13;;;;;;;24.15;13.68;;;;;;;-3.79;80.81;141356.81;1543877;91;21062;-63
2021/12/29 08:57:42;;;;;;;31.27;16.52;;;;;;;-3.73;80.65;141371.66;1541126;93;21194;-62
2021/12/29 09:00:14;;;;;;;26.33;15.03;;;;;;;-3.74;80.46;141369.20;1551524;92;21102;-63
2021/12/29 09:02:43;;;;;;;28.32;14.47;;;;;;;-3.75;80.37;141366.69;1549252;91;21079;-70
2021/12/29 09:05:12;;;;;;;28.40;15.58;;;;;;;-3.76;80.39;141363.00;1548350;92;21140;-63
2021/12/29 09:07:40;;;;;;;29.65;14.75;;;;;;;-3.76;80.25;141364.23;1535910;93;21093;-67
2021/12/29 09:16:58;;;;;;;33.15;16.77;;;;;;;-3.73;80.57;141370.44;1563697;91;21072;-66
2021/12/29 09:19:25;;;;;;;32.60;17.92;;;;;;;-3.66;80.51;141386.50;1576223;91;21644;-65
2021/12/29 09:21:54;;;;;;;31.82;17.90;;;;;;;-3.63;80.43;141393.97;1580980;91;21079;-67
2021/12/29 09:24:21;;;;;;;32.42;17.35;;;;;;;-3.58;80.55;141406.36;1580759;90;21163;-66
2021/12/29 09:26:48;;;;;;;25.57;14.40;;;;;;;-3.54;80.35;141416.25;1579907;91;21087;-64
2021/12/29 09:29:16;;;;;;;32.83;17.92;;;;;;;-3.49;80.14;141428.63;1580846;91;21080;-64
2021/12/29 09:31:43;;;;;;;29.85;17.80;;;;;;;-3.50;80.11;141427.41;1580997;91;21112;-65
2021/12/29 09:34:09;;;;;;;30.05;15.95;;;;;;;-3.47;80.06;141433.59;1580877;90;21610;-65
2021/12/29 09:36:36;;;;;;;28.83;17.00;;;;;;;-3.45;79.97;141437.34;1581072;91;21597;-65
2021/12/29 09:39:04;;;;;;;32.73;17.37;;;;;;;-3.43;79.85;141442.30;1580734;90;21056;-65
2021/12/29 09:41:32;;;;;;;27.93;16.90;;;;;;;-3.41;79.82;141448.50;1580960;91;21080;-65
2021/12/29 09:43:59;;;;;;;35.17;16.85;;;;;;;-3.44;79.74;141441.03;1580907;91;21055;-65
2021/12/29 09:46:26;;;;;;;34.45;17.27;;;;;;;-3.44;79.65;141441.03;1580946;91;21625;-65
2021/12/29 09:48:53;;;;;;;32.88;17.75;;;;;;;-3.50;79.46;141426.17;1580742;91;21135;-69
2021/12/29 09:51:20;;;;;;;33.35;17.80;;;;;;;-3.53;79.76;141419.98;1580801;90;21064;-67
2021/12/29 09:53:47;;;;;;;37.23;18.07;;;;;;;-3.51;79.84;141423.67;1580775;91;21136;-65
2021/12/29 09:56:14;;;;;;;28.45;16.77;;;;;;;-3.47;79.73;141433.59;1580707;91;21577;-69
2021/12/29 09:58:40;;;;;;;32.40;18.07;;;;;;;-3.43;79.62;141442.30;1580714;91;21088;-66
2021/12/29 10:01:10;;;;;;;30.68;17.80;;;;;;;-3.43;79.58;141442.30;1580728;91;21080;-66
2021/12/29 10:03:37;;;;;;;33.48;18.42;;;;;;;-3.41;79.54;141448.50;1580819;90;21606;-69
2021/12/29 10:06:09;;;;;;;38.75;20.80;;;;;;;-3.43;79.48;141443.53;1578664;90;21096;-64
2021/12/29 10:08:42;;;;;;;37.87;20.70;;;;;;;-3.44;79.68;141441.03;1573134;91;21040;-66
2021/12/29 10:11:26;;;;;;;37.88;20.30;;;;;;;-3.43;79.81;141442.30;1572898;90;21569;-66
2021/12/29 10:13:54;;;;;;;35.78;20.23;;;;;;;-3.38;79.86;141455.92;1572746;91;21562;-67
2021/12/29 10:16:25;;;;;;;34.27;20.70;;;;;;;-3.43;79.60;141443.53;1572825;91;21129;-64
2021/12/29 10:21:44;;;;;;;36.05;20.52;;;;;;;-3.50;79.65;141426.17;1593751;89;21076;-63
2021/12/29 10:24:13;;;;;;;33.65;19.40;;;;;;;-3.53;79.91;141418.75;1565743;91;21119;-67
2021/12/29 10:26:45;;;;;;;36.30;20.00;;;;;;;-3.50;80.09;141426.17;1546982;92;21071;-65
2021/12/29 10:29:17;;;;;;;36.85;20.57;;;;;;;-3.43;80.13;141442.30;1550058;92;21592;-67
2021/12/29 10:31:54;;;;;;;38.50;21.25;;;;;;;-3.40;79.90;141449.72;1565465;91;21227;-66
2021/12/29 10:34:29;;;;;;;43.02;20.97;;;;;;;-3.35;79.76;141462.11;1540551;93;21098;-64
2021/12/29 10:37:04;;;;;;;48.30;25.55;;;;;;;-3.35;79.54;141462.11;1565477;92;21116;-66
2021/12/29 10:39:37;;;;;;;44.85;24.35;;;;;;;-3.36;79.71;141460.88;1565359;92;21055;-67
2021/12/29 10:42:08;;;;;;;;;;;;;;;-3.30;79.71;141475.73;1542922;93;21099;-64
2021/12/29 10:44:43;;;;;;;57.75;29.63;;;;;;;-3.26;79.55;141484.39;1550500;92;20105;-66
2021/12/29 10:47:31;;;;;;;74.85;39.27;;;;;;;-3.34;79.51;141464.56;1565566;91;21521;-64
2021/12/29 10:50:03;;;;;;;33.28;18.60;;;;;;;-3.34;79.81;141464.56;1540517;93;21094;-64
2021/12/29 10:52:39;;;;;;;35.50;20.27;;;;;;;-3.28;79.50;141480.70;1565499;91;21130;-64
2021/12/29 10:55:11;;;;;;;36.70;20.40;;;;;;;-3.23;79.35;141490.59;1564787;91;21671;-64
2021/12/29 10:57:39;;;;;;;37.17;20.90;;;;;;;-3.22;79.20;141493.09;1550165;92;21110;-67
2021/12/29 11:00:12;;;;;;;44.08;26.87;;;;;;;-3.19;79.10;141500.52;1565340;90;21035;-66
2021/12/29 11:02:39;;;;;;;37.55;22.55;;;;;;;-3.15;79.15;141511.69;1563902;92;21056;-65
2021/12/29 11:05:09;;;;;;;34.73;19.60;;;;;;;-3.11;79.06;141520.34;1564304;91;21083;-63
2021/12/29 11:07:38;;;;;;;33.20;19.95;;;;;;;-3.08;78.86;141527.77;1549027;92;21090;-66
2021/12/29 11:10:13;;;;;;;34.88;20.23;;;;;;;-3.07;78.81;141530.28;1564406;91;21107;-66
2021/12/29 11:12:54;;;;;;;33.30;19.85;;;;;;;-3.06;78.79;141532.73;1548378;92;21135;-66
2021/12/29 11:15:28;;;;;;;35.48;18.80;;;;;;;-3.05;78.60;141535.23;1564618;91;21067;-65
2021/12/29 11:18:06;;;;;;;31.68;17.48;;;;;;;-3.06;78.46;141533.97;1548250;92;21094;-66
2021/12/29 11:20:34;;;;;;;35.23;19.23;;;;;;;-3.08;78.42;141527.77;1566402;90;21063;-67
2021/12/29 11:23:11;;;;;;;37.50;19.50;;;;;;;-3.07;78.50;141530.28;1545040;91;21028;-64
2021/12/29 11:25:40;;;;;;;34.80;19.98;;;;;;;-3.06;78.53;141532.73;1545052;91;21056;-68
2021/12/29 11:28:20;;;;;;;68.75;31.50;;;;;;;-3.07;78.31;141531.50;1570289;90;21115;-68
2021/12/29 11:30:49;;;;;;;102.80;46.40;;;;;;;-3.23;78.35;141490.59;1569652;91;21114;-65
2021/12/29 11:33:15;;;;;;;54.13;28.30;;;;;;;-3.42;78.91;141445.98;1570300;90;21059;-66
2021/12/29 11:35:50;;;;;;;38.35;21.33;;;;;;;-3.45;79.53;141438.56;1545135;91;21091;-66